createdAt,value
2022-09-11T00:01:09.699Z,32.10
2022-09-11T00:03:36.544Z,30.00
2022-09-11T00:06:08.192Z,29.07
2022-09-11T00:08:35.274Z,40.17
2022-09-11T00:11:08.824Z,32.50
2022-09-11T00:13:36.428Z,33.60
2022-09-11T00:16:05.693Z,41.83
2022-09-11T00:18:35.764Z,37.10
2022-09-11T00:21:04.295Z,36.43
2022-09-11T00:23:31.028Z,34.77
2022-09-11T00:26:02.334Z,37.73
2022-09-11T00:28:28.880Z,42.13
2022-09-11T00:31:12.514Z,41.90
2022-09-11T00:33:40.183Z,45.07
2022-09-11T00:36:10.594Z,46.40
2022-09-11T00:38:37.636Z,42.27
2022-09-11T00:41:07.386Z,43.77
2022-09-11T00:43:55.238Z,39.07
2022-09-11T00:46:26.130Z,36.77
2022-09-11T00:48:52.661Z,35.00
2022-09-11T00:51:24.949Z,39.20
2022-09-11T00:53:54.574Z,38.20
2022-09-11T00:56:22.673Z,41.63
2022-09-11T00:58:51.064Z,36.60
2022-09-11T01:01:17.449Z,35.90
2022-09-11T01:03:44.302Z,32.40
2022-09-11T01:06:11.001Z,35.20
2022-09-11T01:08:38.534Z,36.80
2022-09-11T01:11:41.849Z,33.87
2022-09-11T01:14:20.851Z,38.10
2022-09-11T01:17:01.227Z,36.50
2022-09-11T01:19:52.058Z,31.33
2022-09-11T01:22:42.459Z,43.70
2022-09-11T01:25:28.855Z,36.27
2022-09-11T01:27:58.304Z,35.93
2022-09-11T01:30:35.347Z,36.03
2022-09-11T01:33:20.780Z,50.70
2022-09-11T01:36:10.087Z,42.13
2022-09-11T01:38:54.449Z,57.17
2022-09-11T01:41:30.003Z,50.13
2022-09-11T01:44:04.861Z,45.20
2022-09-11T01:46:38.504Z,78.97
2022-09-11T01:49:18.351Z,45.23
2022-09-11T01:51:48.285Z,47.30
2022-09-11T01:54:18.068Z,39.30
2022-09-11T01:56:53.196Z,43.73
2022-09-11T01:59:28.933Z,36.77
2022-09-11T02:02:03.929Z,39.50
2022-09-11T02:04:36.293Z,43.17
2022-09-11T02:07:10.384Z,37.87
2022-09-11T02:09:44.991Z,48.97
2022-09-11T02:12:16.000Z,39.50
2022-09-11T02:14:45.135Z,37.80
2022-09-11T02:17:31.530Z,41.30
2022-09-11T02:20:00.770Z,35.00
2022-09-11T02:22:27.516Z,34.67
2022-09-11T02:24:54.923Z,38.60
2022-09-11T02:27:24.289Z,38.80
2022-09-11T02:29:53.334Z,34.27
2022-09-11T02:32:21.539Z,33.03
2022-09-11T02:34:48.465Z,38.67
2022-09-11T02:37:42.577Z,37.97
2022-09-11T02:40:25.707Z,38.40
2022-09-11T02:43:33.366Z,48.63
2022-09-11T02:46:23.969Z,31.00
2022-09-11T02:49:00.241Z,35.93
2022-09-11T02:51:55.821Z,28.33
2022-09-11T02:54:47.727Z,32.77
2022-09-11T02:57:26.667Z,34.83
2022-09-11T02:59:56.828Z,39.93
2022-09-11T03:02:24.634Z,45.90
2022-09-11T03:04:51.095Z,39.30
2022-09-11T03:07:17.425Z,37.73
2022-09-11T03:09:43.790Z,40.27
2022-09-11T03:12:10.370Z,40.27
2022-09-11T03:14:38.160Z,41.47
2022-09-11T03:17:05.327Z,35.03
2022-09-11T03:19:31.963Z,35.07
2022-09-11T03:21:58.363Z,31.97
2022-09-11T03:24:26.315Z,35.27
2022-09-11T03:26:52.687Z,38.33
2022-09-11T03:29:19.029Z,29.67
2022-09-11T03:31:45.898Z,31.10
2022-09-11T03:34:12.392Z,31.20
2022-09-11T03:36:39.127Z,30.80
2022-09-11T03:39:05.796Z,31.93
2022-09-11T03:41:32.764Z,28.83
2022-09-11T03:43:59.178Z,31.80
2022-09-11T03:46:25.595Z,29.50
2022-09-11T03:48:53.208Z,30.60
2022-09-11T03:51:20.160Z,32.03
2022-09-11T03:53:46.743Z,32.53
2022-09-11T03:56:14.957Z,37.57
2022-09-11T03:58:41.319Z,34.50
2022-09-11T04:01:11.097Z,35.10
2022-09-11T04:03:37.507Z,33.47
2022-09-11T04:06:04.544Z,35.13
2022-09-11T04:08:33.724Z,30.40
2022-09-11T04:11:02.870Z,36.93
2022-09-11T04:13:30.923Z,35.73
2022-09-11T04:16:03.243Z,35.57
2022-09-11T04:18:31.351Z,36.50
2022-09-11T04:20:58.240Z,37.33
2022-09-11T04:23:25.408Z,40.50
2022-09-11T04:25:52.365Z,32.23
2022-09-11T04:28:18.898Z,32.30
2022-09-11T04:30:45.398Z,31.13
2022-09-11T04:33:11.914Z,29.63
2022-09-11T04:35:39.772Z,30.40
2022-09-11T04:38:07.542Z,33.70
2022-09-11T04:40:35.062Z,30.73
2022-09-11T04:43:02.704Z,29.23
2022-09-11T04:45:33.336Z,28.80
2022-09-11T04:48:00.994Z,31.63
2022-09-11T04:50:31.241Z,35.73
2022-09-11T04:52:58.784Z,28.80
2022-09-11T04:55:26.026Z,33.23
2022-09-11T04:57:53.965Z,24.07
2022-09-11T05:00:20.781Z,26.33
2022-09-11T05:02:47.720Z,28.30
2022-09-11T05:05:14.135Z,31.07
2022-09-11T05:07:40.481Z,32.37
2022-09-11T05:10:07.998Z,26.73
2022-09-11T05:12:34.779Z,28.80
2022-09-11T05:15:01.103Z,31.73
2022-09-11T05:17:27.698Z,30.97
2022-09-11T05:19:54.150Z,38.83
2022-09-11T05:22:20.657Z,27.03
2022-09-11T05:24:47.005Z,23.77
2022-09-11T05:27:14.163Z,24.63
2022-09-11T05:29:40.691Z,27.30
2022-09-11T05:32:07.007Z,24.47
2022-09-11T05:34:33.378Z,21.63
2022-09-11T05:36:59.802Z,27.17
2022-09-11T05:39:26.306Z,24.07
2022-09-11T05:41:53.944Z,23.50
2022-09-11T05:44:20.431Z,25.50
2022-09-11T05:46:48.354Z,22.40
2022-09-11T05:49:16.044Z,25.17
2022-09-11T05:51:42.392Z,24.27
2022-09-11T05:54:08.751Z,23.43
2022-09-11T05:56:35.099Z,26.23
2022-09-11T05:59:02.733Z,23.07
2022-09-11T06:01:29.370Z,21.00
2022-09-11T06:03:56.635Z,23.43
2022-09-11T06:06:23.735Z,21.23
2022-09-11T06:08:51.755Z,26.40
2022-09-11T06:11:20.009Z,22.80
2022-09-11T06:13:48.331Z,24.57
2022-09-11T06:16:23.112Z,22.30
2022-09-11T06:18:51.630Z,23.13
2022-09-11T06:21:20.478Z,23.67
2022-09-11T06:23:48.446Z,18.97
2022-09-11T06:26:17.129Z,19.80
2022-09-11T06:28:43.605Z,19.33
2022-09-11T06:31:13.241Z,20.30
2022-09-11T06:33:40.949Z,17.23
2022-09-11T06:36:12.518Z,16.23
2022-09-11T06:38:39.555Z,15.47
2022-09-11T06:41:12.519Z,17.53
2022-09-11T06:43:38.869Z,17.10
2022-09-11T06:46:07.656Z,16.83
2022-09-11T06:48:34.121Z,18.30
2022-09-11T06:51:05.211Z,17.77
2022-09-11T06:53:31.665Z,16.83
2022-09-11T06:56:06.808Z,15.50
2022-09-11T06:58:33.466Z,17.33
2022-09-11T07:01:04.344Z,14.20
2022-09-11T07:03:31.188Z,14.70
2022-09-11T07:05:57.804Z,13.93
2022-09-11T07:08:25.893Z,17.00
2022-09-11T07:10:52.421Z,15.70
2022-09-11T07:13:19.445Z,13.33
2022-09-11T07:15:47.939Z,14.10
2022-09-11T07:18:14.267Z,15.60
2022-09-11T07:20:41.582Z,14.07
2022-09-11T07:23:08.913Z,14.20
2022-09-11T07:25:40.393Z,14.83
2022-09-11T07:28:06.807Z,14.13
2022-09-11T07:30:33.206Z,12.93
2022-09-11T07:32:59.552Z,13.30
2022-09-11T07:35:26.003Z,15.30
2022-09-11T07:37:52.807Z,12.10
2022-09-11T07:40:19.189Z,12.43
2022-09-11T07:42:45.516Z,12.73
2022-09-11T07:45:11.982Z,11.40
2022-09-11T07:47:38.527Z,11.87
2022-09-11T07:50:05.759Z,11.03
2022-09-11T07:52:32.415Z,11.30
2022-09-11T07:54:58.769Z,9.90
2022-09-11T07:57:25.115Z,10.70
2022-09-11T07:59:52.059Z,9.60
2022-09-11T08:02:18.501Z,9.93
2022-09-11T08:04:45.191Z,11.30
2022-09-11T08:07:11.745Z,10.27
2022-09-11T08:09:38.193Z,10.70
2022-09-11T08:12:05.243Z,10.30
2022-09-11T08:14:32.268Z,10.47
2022-09-11T08:16:58.744Z,11.23
2022-09-11T08:19:25.072Z,9.80
2022-09-11T08:21:52.807Z,9.10
2022-09-11T08:24:20.290Z,8.70
2022-09-11T08:26:49.006Z,7.83
2022-09-11T08:29:15.955Z,8.60
2022-09-11T08:31:42.387Z,7.33
2022-09-11T08:34:09.947Z,8.37
2022-09-11T08:36:36.318Z,8.07
2022-09-11T08:39:02.809Z,6.73
2022-09-11T08:41:42.371Z,7.80
2022-09-11T08:44:23.965Z,6.17
2022-09-11T08:46:59.384Z,6.00
2022-09-11T08:49:36.434Z,6.03
2022-09-11T08:52:05.811Z,5.57
2022-09-11T08:54:34.983Z,7.33
2022-09-11T08:57:18.496Z,4.70
2022-09-11T09:00:13.166Z,4.80
2022-09-11T09:03:08.920Z,4.33
2022-09-11T09:05:53.361Z,5.27
2022-09-11T09:08:47.492Z,3.90
2022-09-11T09:11:37.120Z,4.60
2022-09-11T09:14:22.194Z,4.17
2022-09-11T09:17:07.565Z,3.67
2022-09-11T09:19:42.560Z,4.10
2022-09-11T09:22:26.225Z,5.50
2022-09-11T09:25:00.229Z,4.70
2022-09-11T09:27:34.509Z,4.00
2022-09-11T09:30:05.475Z,3.80
2022-09-11T09:32:37.486Z,5.10
2022-09-11T09:35:16.790Z,4.53
2022-09-11T09:37:43.927Z,4.47
2022-09-11T09:40:11.323Z,4.20
2022-09-11T09:42:52.204Z,3.70
2022-09-11T09:45:33.635Z,4.17
2022-09-11T09:48:01.223Z,4.20
2022-09-11T09:50:38.975Z,4.37
2022-09-11T09:53:17.822Z,4.33
2022-09-11T09:55:45.076Z,3.40
2022-09-11T09:58:11.443Z,3.47
2022-09-11T10:00:39.787Z,4.20
2022-09-11T10:03:23.994Z,5.57
2022-09-11T10:05:55.134Z,2.53
2022-09-11T10:08:35.483Z,2.90
2022-09-11T10:11:06.920Z,2.47
2022-09-11T10:13:38.481Z,2.40
2022-09-11T10:16:19.674Z,2.57
2022-09-11T10:18:47.230Z,2.53
2022-09-11T10:21:13.716Z,3.83
2022-09-11T10:23:47.962Z,2.80
2022-09-11T10:26:18.164Z,3.03
2022-09-11T10:28:46.815Z,6.40
2022-09-11T10:31:17.551Z,2.50
2022-09-11T10:33:55.138Z,2.73
2022-09-11T10:36:23.899Z,2.40
2022-09-11T10:38:50.751Z,2.40
2022-09-11T10:41:26.121Z,2.00
2022-09-11T10:44:15.829Z,2.30
2022-09-11T10:46:43.367Z,2.13
2022-09-11T10:49:21.788Z,2.27
2022-09-11T10:52:17.410Z,3.03
2022-09-11T10:54:58.413Z,2.50
2022-09-11T10:57:28.612Z,2.00
2022-09-11T11:00:10.283Z,1.97
2022-09-11T11:02:52.541Z,2.30
2022-09-11T11:05:31.628Z,2.63
2022-09-11T11:08:18.159Z,2.40
2022-09-11T11:11:12.684Z,2.90
2022-09-11T11:13:41.694Z,2.80
2022-09-11T11:16:20.404Z,1.93
2022-09-11T11:19:20.040Z,3.00
2022-09-11T11:22:01.630Z,2.43
2022-09-11T11:24:54.281Z,2.57
2022-09-11T11:27:45.287Z,2.10
2022-09-11T11:30:21.603Z,3.13
2022-09-11T11:33:15.734Z,2.10
2022-09-11T11:36:00.445Z,2.53
2022-09-11T11:39:00.361Z,2.50
2022-09-11T11:41:35.017Z,2.50
2022-09-11T11:44:05.829Z,2.40
2022-09-11T11:46:39.048Z,4.13
2022-09-11T11:49:14.714Z,2.30
2022-09-11T11:51:49.191Z,2.00
2022-09-11T11:54:41.885Z,2.07
2022-09-11T11:57:14.124Z,1.77
2022-09-11T11:59:50.675Z,2.13
2022-09-11T12:02:24.436Z,2.07
2022-09-11T12:05:17.129Z,2.00
2022-09-11T12:07:47.248Z,2.10
2022-09-11T12:10:28.945Z,2.00
2022-09-11T12:13:17.205Z,2.87
2022-09-11T12:16:11.589Z,1.60
2022-09-11T12:18:38.468Z,1.93
2022-09-11T12:21:23.440Z,2.03
2022-09-11T12:23:49.697Z,1.80
2022-09-11T12:26:22.248Z,2.47
2022-09-11T12:28:49.723Z,2.20
2022-09-11T12:31:17.866Z,1.93
2022-09-11T12:33:47.219Z,1.70
2022-09-11T12:36:24.480Z,1.53
2022-09-11T12:39:01.339Z,1.63
2022-09-11T12:41:34.269Z,1.90
2022-09-11T12:44:03.059Z,1.40
2022-09-11T12:46:29.298Z,1.53
2022-09-11T12:49:21.714Z,1.83
2022-09-11T12:51:54.799Z,1.60
2022-09-11T12:54:29.648Z,1.80
2022-09-11T12:57:06.365Z,1.50
2022-09-11T12:59:43.395Z,1.60
2022-09-11T13:02:35.000Z,2.80
2022-09-11T13:05:03.815Z,1.80
2022-09-11T13:07:40.787Z,1.60
2022-09-11T13:10:25.032Z,1.80
2022-09-11T13:12:54.327Z,1.67
2022-09-11T13:15:38.699Z,1.43
2022-09-11T13:18:29.741Z,1.60
2022-09-11T13:20:58.850Z,1.60
2022-09-11T13:23:26.388Z,1.20
2022-09-11T13:25:56.404Z,1.30
2022-09-11T13:28:27.080Z,3.30
2022-09-11T13:31:02.006Z,2.10
2022-09-11T13:33:30.996Z,3.47
2022-09-11T13:36:02.468Z,1.50
2022-09-11T13:38:34.930Z,2.03
2022-09-11T13:41:06.210Z,1.30
2022-09-11T13:43:46.013Z,1.93
2022-09-11T13:46:15.416Z,1.20
2022-09-11T13:48:49.960Z,1.60
2022-09-11T13:51:20.822Z,1.90
2022-09-11T13:53:53.591Z,1.43
2022-09-11T13:56:41.609Z,1.40
2022-09-11T13:59:32.415Z,1.40
2022-09-11T14:02:02.278Z,1.60
2022-09-11T14:04:29.422Z,1.17
2022-09-11T14:06:56.011Z,1.30
2022-09-11T14:09:22.924Z,1.57
2022-09-11T14:11:49.721Z,1.40
2022-09-11T14:14:26.200Z,1.83
2022-09-11T14:16:57.965Z,1.50
2022-09-11T14:19:31.988Z,1.67
2022-09-11T14:21:58.816Z,1.50
2022-09-11T14:24:32.681Z,1.57
2022-09-11T14:27:01.640Z,2.63
2022-09-11T14:29:33.433Z,2.17
2022-09-11T14:32:27.792Z,1.60
2022-09-11T14:34:54.339Z,1.40
2022-09-11T14:37:21.615Z,1.33
2022-09-11T14:39:54.759Z,1.60
2022-09-11T14:42:23.381Z,1.33
2022-09-11T14:44:50.472Z,2.40
2022-09-11T14:47:19.089Z,1.50
2022-09-11T14:49:46.708Z,1.73
2022-09-11T14:52:15.636Z,1.50
2022-09-11T14:54:42.643Z,1.40
2022-09-11T14:57:17.208Z,1.87
2022-09-11T14:59:46.252Z,1.40
2022-09-11T15:02:14.850Z,1.40
2022-09-11T15:04:41.365Z,1.63
2022-09-11T15:07:11.632Z,2.67
2022-09-11T15:09:38.375Z,2.10
2022-09-11T15:12:06.111Z,1.70
2022-09-11T15:14:54.823Z,2.17
2022-09-11T15:17:20.146Z,1.60
2022-09-11T15:19:49.385Z,1.70
2022-09-11T15:22:16.339Z,2.10
2022-09-11T15:24:42.712Z,1.60
2022-09-11T15:27:10.718Z,4.40
2022-09-11T15:29:39.370Z,1.90
2022-09-11T15:32:08.128Z,1.50
2022-09-11T15:34:34.487Z,2.53
2022-09-11T15:37:01.230Z,1.40
2022-09-11T15:39:28.136Z,2.23
2022-09-11T15:41:57.729Z,1.60
2022-09-11T15:44:26.970Z,1.50
2022-09-11T15:46:55.064Z,1.70
2022-09-11T15:49:23.304Z,1.40
2022-09-11T15:51:51.610Z,1.37
2022-09-11T15:54:19.136Z,2.70
2022-09-11T15:56:46.780Z,1.70
2022-09-11T15:59:15.155Z,1.67
2022-09-11T16:01:43.116Z,1.87
2022-09-11T16:04:12.111Z,1.53
2022-09-11T16:06:40.915Z,1.70
2022-09-11T16:09:11.536Z,1.60
2022-09-11T16:11:39.862Z,2.27
2022-09-11T16:14:07.853Z,3.77
2022-09-11T16:16:34.733Z,2.00
2022-09-11T16:19:01.712Z,1.30
2022-09-11T16:21:28.639Z,3.90
2022-09-11T16:24:00.746Z,3.27
2022-09-11T16:26:28.960Z,1.60
2022-09-11T16:28:55.380Z,2.00
2022-09-11T16:31:21.750Z,1.57
2022-09-11T16:33:48.631Z,1.57
2022-09-11T16:36:18.006Z,3.80
2022-09-11T16:38:45.290Z,1.40
2022-09-11T16:41:16.511Z,1.53
2022-09-11T16:43:45.700Z,2.03
2022-09-11T16:46:17.687Z,1.43
2022-09-11T16:48:44.473Z,1.43
2022-09-11T16:51:12.513Z,2.40
2022-09-11T16:53:39.298Z,1.50
2022-09-11T16:56:10.709Z,1.50
2022-09-11T16:58:37.275Z,1.40
2022-09-11T17:01:05.726Z,1.47
2022-09-11T17:03:32.120Z,1.50
2022-09-11T17:06:01.260Z,2.47
2022-09-11T17:08:30.323Z,1.60
2022-09-11T17:10:59.918Z,1.47
2022-09-11T17:13:29.905Z,1.10
2022-09-11T17:16:06.068Z,4.47
2022-09-11T17:18:33.185Z,1.37
2022-09-11T17:21:05.101Z,1.47
2022-09-11T17:23:32.686Z,1.70
2022-09-11T17:25:59.074Z,1.90
2022-09-11T17:28:26.614Z,1.20
2022-09-11T17:30:53.151Z,1.97
2022-09-11T17:33:19.588Z,1.50
2022-09-11T17:35:46.880Z,1.20
2022-09-11T17:38:13.206Z,2.03
2022-09-11T17:40:41.147Z,1.43
2022-09-11T17:43:07.635Z,1.30
2022-09-11T17:45:34.050Z,1.50
2022-09-11T17:48:01.517Z,1.50
2022-09-11T17:50:28.076Z,1.27
2022-09-11T17:52:54.564Z,1.43
2022-09-11T17:55:21.473Z,1.57
2022-09-11T17:57:53.867Z,1.30
2022-09-11T18:00:20.585Z,1.53
2022-09-11T18:02:49.945Z,1.57
2022-09-11T18:05:16.577Z,1.83
2022-09-11T18:07:42.990Z,2.07
2022-09-11T18:10:09.927Z,1.67
2022-09-11T18:12:36.391Z,1.60
2022-09-11T18:15:02.768Z,3.87
2022-09-11T18:17:29.790Z,1.50
2022-09-11T18:19:56.156Z,2.60
2022-09-11T18:22:23.200Z,3.13
2022-09-11T18:24:52.549Z,2.10
2022-09-11T18:27:19.897Z,2.47
2022-09-11T18:29:46.389Z,1.87
2022-09-11T18:32:12.775Z,1.47
2022-09-11T18:34:39.200Z,1.73
2022-09-11T18:37:07.169Z,3.03
2022-09-11T18:39:34.046Z,1.60
2022-09-11T18:42:00.449Z,1.60
2022-09-11T18:44:26.846Z,1.70
2022-09-11T18:46:54.552Z,1.70
2022-09-11T18:49:21.671Z,1.97
2022-09-11T18:51:48.273Z,1.90
2022-09-11T18:54:17.874Z,2.07
2022-09-11T18:56:44.649Z,3.50
2022-09-11T18:59:12.288Z,2.80
2022-09-11T19:01:39.788Z,1.67
2022-09-11T19:04:10.272Z,2.00
2022-09-11T19:06:40.135Z,1.80
2022-09-11T19:09:10.160Z,2.20
2022-09-11T19:11:36.754Z,2.20
2022-09-11T19:14:06.454Z,2.20
2022-09-11T19:16:33.967Z,2.47
2022-09-11T19:19:00.574Z,2.60
2022-09-11T19:21:27.531Z,3.43
2022-09-11T19:23:57.593Z,2.70
2022-09-11T19:26:30.276Z,3.23
2022-09-11T19:28:57.072Z,3.23
2022-09-11T19:31:25.991Z,3.17
2022-09-11T19:33:53.345Z,2.70
2022-09-11T19:36:22.805Z,3.20
2022-09-11T19:38:51.698Z,3.53
2022-09-11T19:41:21.124Z,4.27
2022-09-11T19:43:48.294Z,5.03
2022-09-11T19:46:20.440Z,10.30
2022-09-11T19:48:48.364Z,13.50
2022-09-11T19:51:21.262Z,9.03
2022-09-11T19:53:51.818Z,12.47
2022-09-11T19:56:19.331Z,5.73
2022-09-11T19:58:45.704Z,6.60
2022-09-11T20:01:15.269Z,4.50
2022-09-11T20:03:43.929Z,3.50
2022-09-11T20:06:11.875Z,3.47
2022-09-11T20:08:40.450Z,4.17
2022-09-11T20:11:07.390Z,5.83
2022-09-11T20:13:35.237Z,5.47
2022-09-11T20:16:03.631Z,3.87
2022-09-11T20:18:30.041Z,3.60
2022-09-11T20:21:02.179Z,3.60
2022-09-11T20:23:29.180Z,3.83
2022-09-11T20:25:56.388Z,3.90
2022-09-11T20:28:22.708Z,3.33
2022-09-11T20:30:49.110Z,4.17
2022-09-11T20:33:15.435Z,3.70
2022-09-11T20:35:41.897Z,3.93
2022-09-11T20:38:08.222Z,3.30
2022-09-11T20:40:36.484Z,4.93
2022-09-11T20:43:03.074Z,5.60
2022-09-11T20:45:29.498Z,3.70
2022-09-11T20:47:55.869Z,3.23
2022-09-11T20:50:22.456Z,3.77
2022-09-11T20:52:48.828Z,3.00
2022-09-11T20:55:15.284Z,3.00
2022-09-11T20:57:41.604Z,3.73
2022-09-11T21:00:09.468Z,4.60
2022-09-11T21:02:36.283Z,3.50
2022-09-11T21:05:04.578Z,2.90
2022-09-11T21:07:31.820Z,4.77
2022-09-11T21:09:58.806Z,3.37
2022-09-11T21:12:25.359Z,2.90
2022-09-11T21:14:51.710Z,3.00
2022-09-11T21:17:18.089Z,3.00
2022-09-11T21:19:44.411Z,2.97
2022-09-11T21:22:11.193Z,2.90
2022-09-11T21:24:37.876Z,2.97
2022-09-11T21:27:04.440Z,3.30
2022-09-11T21:29:30.896Z,3.40
2022-09-11T21:31:57.436Z,4.90
2022-09-11T21:34:23.766Z,2.87
2022-09-11T21:36:50.125Z,2.87
2022-09-11T21:39:16.456Z,4.37
2022-09-11T21:41:43.255Z,3.20
2022-09-11T21:44:09.598Z,3.20
2022-09-11T21:46:36.075Z,2.77
2022-09-11T21:49:02.492Z,3.23
2022-09-11T21:51:29.168Z,3.03
2022-09-11T21:54:01.594Z,3.17
2022-09-11T21:56:32.323Z,3.40
2022-09-11T21:58:59.625Z,3.10
2022-09-11T22:01:27.250Z,3.50
2022-09-11T22:03:54.337Z,2.97
2022-09-11T22:06:23.837Z,6.07
2022-09-11T22:08:51.000Z,4.53
2022-09-11T22:11:17.365Z,2.83
2022-09-11T22:13:43.837Z,3.20
2022-09-11T22:16:13.182Z,3.37
2022-09-11T22:18:40.840Z,2.70
2022-09-11T22:21:09.004Z,2.90
2022-09-11T22:23:35.554Z,2.93
2022-09-11T22:26:13.214Z,3.40
2022-09-11T22:28:40.248Z,2.77
2022-09-11T22:31:12.300Z,3.33
2022-09-11T22:33:40.902Z,4.30
2022-09-11T22:36:13.274Z,3.90
2022-09-11T22:38:39.868Z,3.23
2022-09-11T22:41:07.353Z,3.33
2022-09-11T22:43:33.676Z,3.10
2022-09-11T22:46:00.165Z,2.87
2022-09-11T22:48:26.891Z,4.53
2022-09-11T22:50:54.581Z,2.90
2022-09-11T22:53:20.943Z,2.60
2022-09-11T22:55:49.337Z,3.90
2022-09-11T22:58:16.606Z,3.17
2022-09-11T23:00:44.805Z,2.80
2022-09-11T23:03:11.512Z,3.00
2022-09-11T23:05:56.845Z,3.30
2022-09-11T23:08:45.752Z,3.60
2022-09-11T23:11:15.252Z,3.77
2022-09-11T23:13:43.106Z,4.37
2022-09-11T23:16:13.308Z,3.40
2022-09-11T23:18:40.948Z,2.70
2022-09-11T23:21:08.029Z,4.30
2022-09-11T23:23:40.709Z,2.83
2022-09-11T23:26:08.273Z,3.07
2022-09-11T23:28:34.961Z,3.10
2022-09-11T23:31:04.611Z,2.97
2022-09-11T23:33:31.095Z,4.50
2022-09-11T23:35:57.462Z,3.30
2022-09-11T23:38:23.840Z,3.53
2022-09-11T23:40:50.328Z,4.43
2022-09-11T23:43:16.646Z,3.70
2022-09-11T23:45:43.037Z,3.67
2022-09-11T23:48:09.614Z,3.37
2022-09-11T23:50:35.923Z,3.40
2022-09-11T23:53:02.641Z,3.30
2022-09-11T23:55:29.347Z,3.50
2022-09-11T23:57:55.912Z,3.80
